createdAt,value
2018-07-07T00:00:23.619Z,15.86
2018-07-07T00:01:23.641Z,15.89
2018-07-07T00:02:23.625Z,15.88
2018-07-07T00:03:23.616Z,15.86
2018-07-07T00:04:23.612Z,15.89
2018-07-07T00:05:23.611Z,15.86
2018-07-07T00:06:23.607Z,15.92
2018-07-07T00:07:23.602Z,15.89
2018-07-07T00:08:23.600Z,15.96
2018-07-07T00:09:23.596Z,16.00
2018-07-07T00:10:23.608Z,16.00
2018-07-07T00:11:23.593Z,16.00
2018-07-07T00:12:23.586Z,15.94
2018-07-07T00:13:23.584Z,15.97
2018-07-07T00:14:23.582Z,15.89
2018-07-07T00:15:23.579Z,15.96
2018-07-07T00:16:23.574Z,15.93
2018-07-07T00:17:23.572Z,15.88
2018-07-07T00:18:23.570Z,15.88
2018-07-07T00:19:23.567Z,15.96
2018-07-07T00:20:23.560Z,15.97
2018-07-07T00:21:23.560Z,15.94
2018-07-07T00:22:23.558Z,15.96
2018-07-07T00:23:23.555Z,16.00
2018-07-07T00:24:23.548Z,16.03
2018-07-07T00:25:23.550Z,15.97
2018-07-07T00:26:23.546Z,16.01
2018-07-07T00:27:23.542Z,15.94
2018-07-07T00:28:23.541Z,16.01
2018-07-07T00:29:23.533Z,16.00
2018-07-07T00:30:23.533Z,15.97
2018-07-07T00:31:23.529Z,16.00
2018-07-07T00:32:23.523Z,15.96
2018-07-07T00:33:23.523Z,15.94
2018-07-07T00:34:23.544Z,15.97
2018-07-07T00:35:23.515Z,15.97
2018-07-07T00:36:23.511Z,15.96
2018-07-07T00:37:23.512Z,15.88
2018-07-07T00:38:23.515Z,15.88
2018-07-07T00:39:23.503Z,15.94
2018-07-07T00:40:23.504Z,15.97
2018-07-07T00:41:23.504Z,15.92
2018-07-07T00:42:23.499Z,16.01
2018-07-07T00:43:23.524Z,15.99
2018-07-07T00:44:23.489Z,15.92
2018-07-07T00:45:23.487Z,15.93
2018-07-07T00:46:23.482Z,15.97
2018-07-07T00:47:23.480Z,16.01
2018-07-07T00:48:23.492Z,15.89
2018-07-07T00:49:23.476Z,15.94
2018-07-07T00:50:23.472Z,15.99
2018-07-07T00:51:23.468Z,15.97
2018-07-07T00:52:23.463Z,16.03
2018-07-07T00:53:23.459Z,15.96
2018-07-07T00:54:23.517Z,16.06
2018-07-07T00:55:23.482Z,15.99
2018-07-07T00:56:23.454Z,15.97
2018-07-07T00:57:23.451Z,15.97
2018-07-07T00:58:23.445Z,16.00
2018-07-07T00:59:23.441Z,16.01
2018-07-07T01:00:23.441Z,16.00
2018-07-07T01:01:23.438Z,15.99
2018-07-07T01:02:23.434Z,16.01
2018-07-07T01:03:23.432Z,16.03
2018-07-07T01:04:23.443Z,16.01
2018-07-07T01:05:23.448Z,16.04
2018-07-07T01:06:23.424Z,16.01
2018-07-07T01:07:23.419Z,16.06
2018-07-07T01:08:23.417Z,16.03
2018-07-07T01:09:23.417Z,16.01
2018-07-07T01:10:23.413Z,16.00
2018-07-07T01:11:23.408Z,15.99
2018-07-07T01:12:23.400Z,16.04
2018-07-07T01:13:23.396Z,15.99
2018-07-07T01:14:23.399Z,16.11
2018-07-07T01:15:23.396Z,16.07
2018-07-07T01:16:23.411Z,16.11
2018-07-07T01:17:23.389Z,16.11
2018-07-07T01:18:23.379Z,16.09
2018-07-07T01:19:23.381Z,16.09
2018-07-07T01:20:23.538Z,15.97
2018-07-07T01:21:23.388Z,16.07
2018-07-07T01:22:23.371Z,16.09
2018-07-07T01:23:23.372Z,16.01
2018-07-07T01:24:23.367Z,16.11
2018-07-07T01:25:23.366Z,16.07
2018-07-07T01:26:23.363Z,16.06
2018-07-07T01:27:23.360Z,16.09
2018-07-07T01:28:23.357Z,16.00
2018-07-07T01:29:23.356Z,16.03
2018-07-07T01:30:23.351Z,16.09
2018-07-07T01:31:23.350Z,16.07
2018-07-07T02:05:30.146Z,15.94
2018-07-07T02:06:30.116Z,15.86
2018-07-07T02:08:23.055Z,15.89
2018-07-07T02:09:23.032Z,15.94
2018-07-07T02:11:15.987Z,15.88
2018-07-07T02:12:15.961Z,15.89
2018-07-07T02:14:08.873Z,15.97
2018-07-07T02:15:08.861Z,15.89
2018-07-07T02:17:01.762Z,15.93
2018-07-07T02:18:01.741Z,16.00
2018-07-07T02:19:54.660Z,15.93
2018-07-07T02:20:54.636Z,16.00
2018-07-07T02:22:47.609Z,15.94
2018-07-07T02:23:47.587Z,15.92
2018-07-07T02:25:40.519Z,15.94
2018-07-07T02:26:40.473Z,16.01
2018-07-07T02:28:33.375Z,15.97
2018-07-07T02:29:33.360Z,15.93
2018-07-07T02:31:26.314Z,15.92
2018-07-07T02:32:26.293Z,15.89
2018-07-07T02:34:19.210Z,15.88
2018-07-07T02:35:19.194Z,15.89
2018-07-07T02:37:12.131Z,15.92
2018-07-07T02:38:12.109Z,15.97
2018-07-07T02:40:05.095Z,15.89
2018-07-07T02:41:05.056Z,15.94
2018-07-07T02:42:57.977Z,15.92
2018-07-07T02:43:57.957Z,15.92
2018-07-07T02:45:50.889Z,15.99
2018-07-07T02:46:50.870Z,15.96
2018-07-07T02:48:43.772Z,15.99
2018-07-07T02:49:43.766Z,15.97
2018-07-07T02:51:36.698Z,15.99
2018-07-07T02:52:36.676Z,16.03
2018-07-07T02:54:29.642Z,16.00
2018-07-07T02:55:29.627Z,15.92
2018-07-07T02:57:22.571Z,15.76
2018-07-07T02:58:22.547Z,15.76
2018-07-07T03:00:15.456Z,15.72
2018-07-07T03:01:15.450Z,15.75
2018-07-07T03:03:08.437Z,15.72
2018-07-07T03:04:08.366Z,15.67
2018-07-07T03:06:01.273Z,15.66
2018-07-07T03:07:01.254Z,15.72
2018-07-07T03:08:54.195Z,15.67
2018-07-07T03:09:54.143Z,15.57
2018-07-07T03:11:47.092Z,15.60
2018-07-07T03:12:47.073Z,15.57
2018-07-07T03:14:39.999Z,15.49
2018-07-07T03:15:39.985Z,15.46
2018-07-07T03:17:32.931Z,15.45
2018-07-07T03:18:32.904Z,15.36
2018-07-07T03:20:26.930Z,15.39
2018-07-07T03:21:26.910Z,15.45
2018-07-07T03:23:19.883Z,15.33
2018-07-07T03:24:19.860Z,15.31
2018-07-07T03:26:12.789Z,15.24
2018-07-07T03:27:12.760Z,15.21
2018-07-07T03:29:05.686Z,15.13
2018-07-07T03:30:05.671Z,15.19
2018-07-07T03:31:58.578Z,15.09
2018-07-07T03:32:58.564Z,15.05
2018-07-07T03:34:51.481Z,15.08
2018-07-07T03:35:51.469Z,15.06
2018-07-07T03:37:44.417Z,15.09
2018-07-07T03:38:44.394Z,15.06
2018-07-07T03:40:37.296Z,15.11
2018-07-07T03:41:37.279Z,15.11
2018-07-07T03:43:30.255Z,15.19
2018-07-07T03:44:30.232Z,15.12
2018-07-07T03:46:23.159Z,15.19
2018-07-07T03:47:23.138Z,15.20
2018-07-07T03:49:16.121Z,15.24
2018-07-07T03:50:16.095Z,15.20
2018-07-07T03:52:09.049Z,15.28
2018-07-07T03:53:09.031Z,15.31
2018-07-07T03:55:01.940Z,15.31
2018-07-07T03:56:01.930Z,15.39
2018-07-07T03:57:54.887Z,15.39
2018-07-07T03:58:54.941Z,15.41
2018-07-07T04:00:47.798Z,15.48
2018-07-07T04:01:47.823Z,15.56
2018-07-07T04:03:40.746Z,15.63
2018-07-07T04:04:40.723Z,15.70
2018-07-07T04:06:33.681Z,15.75
2018-07-07T04:07:33.661Z,15.68
2018-07-07T04:09:26.560Z,15.70
2018-07-07T04:10:26.546Z,15.67
2018-07-07T04:12:19.526Z,15.75
2018-07-07T04:13:19.506Z,15.70
2018-07-07T04:15:12.444Z,15.79
2018-07-07T04:16:12.430Z,15.78
2018-07-07T04:18:05.341Z,15.81
2018-07-07T04:19:05.319Z,15.79
2018-07-07T04:20:58.260Z,15.86
2018-07-07T04:21:58.245Z,15.79
2018-07-07T04:23:51.201Z,15.76
2018-07-07T04:24:51.176Z,15.68
2018-07-07T04:26:44.128Z,15.78
2018-07-07T04:27:44.110Z,15.85
2018-07-07T04:29:37.044Z,15.89
2018-07-07T04:30:37.056Z,15.93
2018-07-07T04:32:29.954Z,16.03
2018-07-07T04:33:29.944Z,15.93
2018-07-07T04:35:22.849Z,16.03
2018-07-07T04:36:22.840Z,16.00
2018-07-07T04:38:15.754Z,15.82
2018-07-07T04:39:15.737Z,15.63
2018-07-07T04:41:08.671Z,15.74
2018-07-07T04:42:08.657Z,15.89
2018-07-07T04:44:01.568Z,15.96
2018-07-07T04:45:01.551Z,16.04
2018-07-07T04:46:54.499Z,16.14
2018-07-07T04:47:54.476Z,16.06
2018-07-07T04:49:47.443Z,16.11
2018-07-07T04:50:47.431Z,15.99
2018-07-07T04:52:40.376Z,15.96
2018-07-07T04:53:40.355Z,15.96
2018-07-07T04:55:33.291Z,16.00
2018-07-07T04:56:33.277Z,16.01
2018-07-07T04:58:26.240Z,16.04
2018-07-07T04:59:26.216Z,16.14
2018-07-07T05:01:19.126Z,16.31
2018-07-07T05:02:19.116Z,16.35
2018-07-07T05:04:12.020Z,16.40
2018-07-07T05:05:12.001Z,16.33
2018-07-07T05:07:04.899Z,16.48
2018-07-07T05:08:04.891Z,16.35
2018-07-07T05:09:57.803Z,16.20
2018-07-07T05:10:57.773Z,16.14
2018-07-07T05:12:50.692Z,16.12
2018-07-07T05:13:50.670Z,16.12
2018-07-07T05:15:43.596Z,16.11
2018-07-07T05:16:43.594Z,15.92
2018-07-07T05:18:36.588Z,16.03
2018-07-07T05:19:36.543Z,16.11
2018-07-07T05:20:36.547Z,16.09
2018-07-07T05:21:36.537Z,16.30
2018-07-07T05:22:36.536Z,16.35
2018-07-07T05:23:36.567Z,16.44
2018-07-07T05:24:36.535Z,16.40
2018-07-07T05:25:36.536Z,16.40
2018-07-07T05:26:36.530Z,16.38
2018-07-07T05:27:36.525Z,16.40
2018-07-07T05:28:36.525Z,16.45
2018-07-07T05:29:36.530Z,16.44
2018-07-07T05:30:36.524Z,16.53
2018-07-07T05:31:36.521Z,16.71
2018-07-07T05:32:36.521Z,16.80
2018-07-07T05:33:36.515Z,16.80
2018-07-07T05:34:36.516Z,16.95
2018-07-07T05:35:36.516Z,16.90
2018-07-07T05:36:36.533Z,16.78
2018-07-07T05:37:36.513Z,16.59
2018-07-07T05:38:36.510Z,16.73
2018-07-07T05:39:36.510Z,16.86
2018-07-07T05:40:36.508Z,16.89
2018-07-07T05:41:36.507Z,16.80
2018-07-07T05:42:36.507Z,16.86
2018-07-07T05:43:36.522Z,16.85
2018-07-07T05:44:36.502Z,16.95
2018-07-07T05:45:36.500Z,16.71
2018-07-07T05:46:36.505Z,16.62
2018-07-07T05:47:36.535Z,16.67
2018-07-07T05:48:36.504Z,16.49
2018-07-07T05:49:36.496Z,16.50
2018-07-07T05:50:36.495Z,16.48
2018-07-07T05:51:36.496Z,16.41
2018-07-07T05:52:36.494Z,16.41
2018-07-07T05:53:36.539Z,16.40
2018-07-07T05:54:36.507Z,16.31
2018-07-07T05:55:36.495Z,16.33
2018-07-07T05:56:36.492Z,16.40
2018-07-07T05:57:36.490Z,16.45
2018-07-07T05:58:36.516Z,16.55
2018-07-07T05:59:36.487Z,16.55
2018-07-07T06:00:36.486Z,16.71
2018-07-07T06:01:36.484Z,16.80
2018-07-07T06:02:36.503Z,17.13
2018-07-07T06:03:36.480Z,17.46
2018-07-07T06:04:36.484Z,17.62
2018-07-07T06:05:36.479Z,17.66
2018-07-07T06:06:36.484Z,17.66
2018-07-07T06:07:36.481Z,17.74
2018-07-07T06:08:36.528Z,18.04
2018-07-07T06:09:36.479Z,18.37
2018-07-07T06:10:36.477Z,18.64
2018-07-07T06:11:36.479Z,19.10
2018-07-07T06:12:36.479Z,19.38
2018-07-07T06:13:36.492Z,18.94
2018-07-07T06:14:36.495Z,19.24
2018-07-07T06:15:36.485Z,19.46
2018-07-07T06:16:36.479Z,19.72
2018-07-07T06:17:36.515Z,19.84
2018-07-07T06:18:36.579Z,19.93
2018-07-07T06:19:36.503Z,20.03
2018-07-07T06:20:36.491Z,20.03
2018-07-07T06:21:36.494Z,20.20
2018-07-07T06:22:36.499Z,19.94
2018-07-07T06:23:36.495Z,19.79
2018-07-07T06:24:36.512Z,20.03
2018-07-07T06:25:36.504Z,20.28
2018-07-07T06:26:36.559Z,19.97
2018-07-07T06:27:36.508Z,19.73
2018-07-07T06:28:36.510Z,19.55
2018-07-07T06:29:36.516Z,19.68
2018-07-07T06:30:36.513Z,19.58
2018-07-07T06:31:36.530Z,19.95
2018-07-07T06:32:36.533Z,20.03
2018-07-07T06:33:36.522Z,20.00
2018-07-07T06:34:36.535Z,20.25
2018-07-07T06:35:36.533Z,20.33
2018-07-07T06:36:36.634Z,20.16
2018-07-07T06:37:36.537Z,20.31
2018-07-07T06:38:36.557Z,19.95
2018-07-07T06:39:36.545Z,19.36
2018-07-07T06:40:36.550Z,18.94
2018-07-07T06:41:36.558Z,18.84
2018-07-07T06:42:36.561Z,18.73
2018-07-07T06:43:36.582Z,18.72
2018-07-07T06:44:36.562Z,18.79
2018-07-07T06:45:36.605Z,19.25
2018-07-07T06:46:36.569Z,19.70
2018-07-07T06:47:36.584Z,20.03
2018-07-07T06:48:36.572Z,19.73
2018-07-07T06:49:36.597Z,19.42
2018-07-07T06:50:36.586Z,19.40
2018-07-07T06:51:36.610Z,19.23
2018-07-07T06:52:36.627Z,19.23
2018-07-07T06:53:36.645Z,19.35
2018-07-07T06:54:36.626Z,19.35
2018-07-07T06:55:36.628Z,19.94
2018-07-07T06:56:36.598Z,19.97
2018-07-07T06:57:36.647Z,19.94
2018-07-07T06:58:36.627Z,19.58
2018-07-07T06:59:36.621Z,19.17
2018-07-07T07:00:36.610Z,18.82
2018-07-07T07:01:36.611Z,18.97
2018-07-07T07:02:36.664Z,19.14
2018-07-07T07:03:36.670Z,18.97
2018-07-07T07:04:37.479Z,19.06
2018-07-07T07:05:36.651Z,18.82
2018-07-07T07:06:36.640Z,18.98
2018-07-07T07:07:36.618Z,18.77
2018-07-07T07:08:36.620Z,18.98
2018-07-07T07:09:36.628Z,18.94
2018-07-07T07:10:36.625Z,19.11
2018-07-07T07:11:36.627Z,18.98
2018-07-07T07:12:36.694Z,19.08
2018-07-07T07:13:36.656Z,19.01
2018-07-07T07:14:36.634Z,19.43
2018-07-07T07:15:36.634Z,19.69
2018-07-07T07:16:36.640Z,19.54
2018-07-07T07:17:36.645Z,20.10
2018-07-07T07:18:36.662Z,21.30
2018-07-07T07:19:36.670Z,22.78
2018-07-07T07:20:36.653Z,23.79
2018-07-07T07:21:36.651Z,24.77
2018-07-07T07:22:36.661Z,25.67
2018-07-07T07:23:36.673Z,25.68
2018-07-07T07:24:36.678Z,26.18
2018-07-07T07:25:36.733Z,26.47
2018-07-07T07:26:36.737Z,26.69
2018-07-07T07:27:36.695Z,25.38
2018-07-07T07:28:36.697Z,23.35
2018-07-07T07:29:36.742Z,22.57
2018-07-07T07:30:36.712Z,22.35
2018-07-07T07:31:36.729Z,22.39
2018-07-07T07:32:36.742Z,22.35
2018-07-07T07:33:36.744Z,22.22
2018-07-07T07:34:36.742Z,22.14
2018-07-07T07:35:36.753Z,22.50
2018-07-07T07:36:36.771Z,21.88
2018-07-07T07:37:36.771Z,22.22
2018-07-07T07:38:36.783Z,22.28
2018-07-07T07:39:36.782Z,23.34
2018-07-07T07:40:36.785Z,24.60
2018-07-07T07:41:36.795Z,25.64
2018-07-07T07:42:36.817Z,26.01
2018-07-07T07:43:36.810Z,25.43
2018-07-07T07:44:36.837Z,25.64
2018-07-07T07:45:36.842Z,25.77
2018-07-07T07:46:36.833Z,25.57
2018-07-07T07:47:36.859Z,25.57
2018-07-07T07:48:36.855Z,25.84
2018-07-07T07:49:36.866Z,26.21
2018-07-07T07:50:36.877Z,26.77
2018-07-07T07:51:36.892Z,27.09
2018-07-07T07:52:36.900Z,27.41
2018-07-07T07:53:36.898Z,27.73
2018-07-07T07:54:36.947Z,27.24
2018-07-07T07:55:36.935Z,26.76
2018-07-07T07:56:36.945Z,27.33
2018-07-07T07:57:36.961Z,26.86
2018-07-07T07:58:36.992Z,26.32
2018-07-07T07:59:36.983Z,25.90
2018-07-07T08:00:36.996Z,26.44
2018-07-07T08:01:37.002Z,27.21
2018-07-07T08:02:37.044Z,26.42
2018-07-07T08:03:37.045Z,26.25
2018-07-07T08:04:37.053Z,26.09
2018-07-07T08:05:37.107Z,26.95
2018-07-07T08:06:37.104Z,27.02
2018-07-07T08:07:38.100Z,27.21
2018-07-07T08:08:37.118Z,27.53
2018-07-07T08:09:37.140Z,28.23
2018-07-07T08:10:37.176Z,27.31
2018-07-07T08:11:37.234Z,27.21
2018-07-07T08:12:37.173Z,27.88
2018-07-07T08:13:37.234Z,28.47
2018-07-07T08:14:37.208Z,28.23
2018-07-07T08:15:37.245Z,27.91
2018-07-07T08:16:37.226Z,28.44
2018-07-07T08:17:37.254Z,28.38
2018-07-07T08:18:37.262Z,27.33
2018-07-07T08:19:37.279Z,27.43
2018-07-07T08:20:37.286Z,27.86
2018-07-07T08:21:37.300Z,28.78
2018-07-07T08:22:37.342Z,29.33
2018-07-07T08:23:37.329Z,29.99
2018-07-07T08:24:37.347Z,29.26
2018-07-07T08:25:37.411Z,27.41
2018-07-07T08:26:37.374Z,27.42
2018-07-07T08:27:37.394Z,27.53
2018-07-07T08:28:37.413Z,28.23
2018-07-07T08:29:37.422Z,28.23
2018-07-07T08:30:37.472Z,27.88
2018-07-07T08:31:37.668Z,27.13
2018-07-07T08:32:37.463Z,27.61
2018-07-07T08:33:37.472Z,27.61
2018-07-07T08:34:37.554Z,27.26
2018-07-07T08:35:38.069Z,27.53
2018-07-07T08:36:37.552Z,28.13
2018-07-07T08:37:37.528Z,29.08
2018-07-07T08:38:37.585Z,29.84
2018-07-07T08:39:37.568Z,30.18
2018-07-07T08:40:37.579Z,31.13
2018-07-07T08:41:37.611Z,30.80
2018-07-07T08:42:37.608Z,29.82
2018-07-07T08:43:37.612Z,29.00
2018-07-07T08:44:37.637Z,29.20
2018-07-07T08:45:37.648Z,27.58
2018-07-07T08:46:37.737Z,27.74
2018-07-07T08:47:37.730Z,28.17
2018-07-07T08:48:37.699Z,29.26
2018-07-07T08:49:37.730Z,29.44
2018-07-07T08:50:37.726Z,29.63
2018-07-07T08:51:37.773Z,29.16
2018-07-07T08:52:37.755Z,27.82
2018-07-07T08:53:37.776Z,27.32
2018-07-07T08:54:37.789Z,27.36
2018-07-07T08:55:37.805Z,27.80
2018-07-07T08:56:37.820Z,27.48
2018-07-07T08:57:37.843Z,28.25
2018-07-07T08:58:37.920Z,28.48
2018-07-07T08:59:37.865Z,28.58
2018-07-07T09:00:37.890Z,28.85
2018-07-07T09:01:37.906Z,30.30
2018-07-07T09:02:37.926Z,31.30
2018-07-07T09:03:37.940Z,31.39
2018-07-07T09:04:37.978Z,30.59
2018-07-07T09:05:37.975Z,31.02
2018-07-07T09:06:37.994Z,30.69
2018-07-07T09:07:38.030Z,29.29
2018-07-07T09:08:38.081Z,28.66
2018-07-07T09:09:38.049Z,28.56
2018-07-07T09:10:38.078Z,28.36
2018-07-07T09:11:38.089Z,29.29
2018-07-07T09:12:38.109Z,29.20
2018-07-07T09:13:38.124Z,28.95
2018-07-07T09:14:38.146Z,28.62
2018-07-07T09:15:38.187Z,27.85
2018-07-07T09:16:38.188Z,27.92
2018-07-07T09:17:38.201Z,29.06
2018-07-07T09:18:38.280Z,29.15
2018-07-07T09:19:38.248Z,29.38
2018-07-07T09:20:38.251Z,29.74
2018-07-07T09:21:38.269Z,29.79
2018-07-07T09:22:38.307Z,29.40
2018-07-07T09:23:38.308Z,29.92
2018-07-07T09:24:38.397Z,29.55
2018-07-07T09:25:38.339Z,28.93
2018-07-07T09:26:38.358Z,29.90
2018-07-07T09:27:38.381Z,30.99
2018-07-07T09:28:38.419Z,30.52
2018-07-07T09:29:38.449Z,31.85
2018-07-07T09:30:38.432Z,32.33
2018-07-07T09:31:38.453Z,32.84
2018-07-07T09:32:38.469Z,32.24
2018-07-07T09:33:38.495Z,32.57
2018-07-07T09:34:38.505Z,30.91
2018-07-07T09:35:38.526Z,29.78
2018-07-07T09:36:38.544Z,28.70
2018-07-07T09:37:38.567Z,29.74
2018-07-07T09:38:38.584Z,30.16
2018-07-07T09:39:38.603Z,30.24
2018-07-07T09:40:38.622Z,30.43
2018-07-07T09:41:38.660Z,31.01
2018-07-07T09:42:38.658Z,30.91
2018-07-07T09:43:38.682Z,28.96
2018-07-07T09:44:38.694Z,29.62
2018-07-07T09:45:39.491Z,30.00
2018-07-07T09:46:38.733Z,30.94
2018-07-07T09:47:38.757Z,29.03
2018-07-07T09:48:38.768Z,29.59
2018-07-07T09:49:38.787Z,29.84
2018-07-07T09:50:38.804Z,30.08
2018-07-07T09:51:38.825Z,29.72
2018-07-07T09:52:38.840Z,30.50
2018-07-07T09:53:38.856Z,29.28
2018-07-07T09:54:38.880Z,28.91
2018-07-07T09:55:38.893Z,29.84
2018-07-07T09:56:38.923Z,29.81
2018-07-07T09:57:38.932Z,30.65
2018-07-07T09:58:38.976Z,30.94
2018-07-07T09:59:38.970Z,30.61
2018-07-07T10:00:38.986Z,30.75
2018-07-07T10:01:39.005Z,30.83
2018-07-07T10:02:39.025Z,30.93
2018-07-07T10:03:39.088Z,30.09
2018-07-07T10:04:39.079Z,29.79
2018-07-07T10:05:39.076Z,30.18
2018-07-07T10:06:39.103Z,30.80
2018-07-07T10:07:39.120Z,30.14
2018-07-07T10:08:39.233Z,30.49
2018-07-07T10:09:39.148Z,29.29
2018-07-07T10:10:39.167Z,29.75
2018-07-07T10:11:39.206Z,29.01
2018-07-07T10:12:39.205Z,27.36
2018-07-07T10:13:39.221Z,28.54
2018-07-07T10:14:39.237Z,29.87
2018-07-07T10:15:39.256Z,31.05
2018-07-07T10:16:39.275Z,31.40
2018-07-07T10:17:39.303Z,30.23
2018-07-07T10:18:39.306Z,29.57
2018-07-07T10:19:39.325Z,29.37
2018-07-07T10:20:39.367Z,30.12
2018-07-07T10:21:39.362Z,29.96
2018-07-07T10:22:39.380Z,29.59
2018-07-07T10:23:39.443Z,28.46
2018-07-07T10:24:39.415Z,28.72
2018-07-07T10:25:39.432Z,28.66
2018-07-07T10:26:39.452Z,28.41
2018-07-07T10:27:39.466Z,28.70
2018-07-07T10:28:39.488Z,29.45
2018-07-07T10:29:39.503Z,29.74
2018-07-07T10:30:39.522Z,30.38
2018-07-07T10:31:39.596Z,30.80
2018-07-07T10:32:39.567Z,31.35
2018-07-07T10:33:39.578Z,32.18
2018-07-07T10:34:39.593Z,32.11
2018-07-07T10:35:39.608Z,32.52
2018-07-07T10:36:39.632Z,32.30
2018-07-07T10:37:39.661Z,32.66
2018-07-07T10:38:39.688Z,31.99
2018-07-07T10:39:39.689Z,31.61
2018-07-07T10:40:39.714Z,31.72
2018-07-07T10:41:39.721Z,30.47
2018-07-07T10:42:39.750Z,29.65
2018-07-07T10:43:39.754Z,29.86
2018-07-07T10:44:39.785Z,29.99
2018-07-07T10:45:39.975Z,29.28
2018-07-07T10:46:39.815Z,29.34
2018-07-07T10:47:39.876Z,28.63
2018-07-07T10:48:39.849Z,28.53
2018-07-07T10:49:39.867Z,28.77
2018-07-07T10:50:39.885Z,27.51
2018-07-07T10:51:39.904Z,27.50
2018-07-07T10:52:39.926Z,26.62
2018-07-07T10:53:39.936Z,27.38
2018-07-07T10:54:39.952Z,27.14
2018-07-07T10:55:39.981Z,27.36
2018-07-07T10:56:39.985Z,27.35
2018-07-07T10:57:40.001Z,27.20
2018-07-07T10:58:40.015Z,26.84
2018-07-07T10:59:40.032Z,26.08
2018-07-07T11:00:40.044Z,25.99
2018-07-07T11:01:40.060Z,26.20
2018-07-07T11:02:40.131Z,26.29
2018-07-07T11:03:40.092Z,26.89
2018-07-07T11:04:40.106Z,26.59
2018-07-07T11:05:40.979Z,26.91
2018-07-07T11:06:40.143Z,28.26
2018-07-07T11:07:40.148Z,27.80
2018-07-07T11:08:40.155Z,27.04
2018-07-07T11:09:40.172Z,26.68
2018-07-07T11:10:40.181Z,26.59
2018-07-07T11:11:40.206Z,27.33
2018-07-07T11:12:40.230Z,26.35
2018-07-07T11:13:40.219Z,25.49
2018-07-07T11:14:40.250Z,26.04
2018-07-07T11:15:40.245Z,26.76
2018-07-07T11:16:40.253Z,27.43
2018-07-07T11:17:40.278Z,27.88
2018-07-07T11:18:40.277Z,29.22
2018-07-07T11:19:40.291Z,29.45
2018-07-07T11:20:40.308Z,28.90
2018-07-07T11:21:40.317Z,29.79
2018-07-07T11:22:40.326Z,29.99
2018-07-07T11:23:40.454Z,29.10
2018-07-07T11:24:40.353Z,28.68
2018-07-07T11:25:40.365Z,28.01
2018-07-07T11:26:40.383Z,28.97
2018-07-07T11:27:40.451Z,30.21
2018-07-07T11:28:40.429Z,31.24
2018-07-07T11:29:40.441Z,31.88
2018-07-07T11:30:40.442Z,31.68
2018-07-07T11:31:40.502Z,32.64
2018-07-07T11:32:40.483Z,32.62
2018-07-07T11:33:40.497Z,32.30
2018-07-07T11:34:40.512Z,32.10
2018-07-07T11:35:40.538Z,32.43
2018-07-07T11:36:40.697Z,32.61
2018-07-07T11:37:40.569Z,32.88
2018-07-07T11:38:40.601Z,32.47
2018-07-07T11:39:40.624Z,31.73
2018-07-07T11:40:40.685Z,32.05
2018-07-07T11:41:40.700Z,30.78
2018-07-07T11:42:40.704Z,30.94
2018-07-07T11:43:40.668Z,31.70
2018-07-07T11:44:40.687Z,30.50
2018-07-07T11:45:40.705Z,30.07
2018-07-07T11:46:40.743Z,29.84
2018-07-07T11:47:40.788Z,29.38
2018-07-07T11:48:40.749Z,28.03
2018-07-07T11:49:40.772Z,27.09
2018-07-07T11:50:40.787Z,26.91
2018-07-07T11:51:40.806Z,26.57
2018-07-07T11:52:40.818Z,26.47
2018-07-07T11:53:40.826Z,26.77
2018-07-07T11:54:40.838Z,27.23
2018-07-07T11:55:40.851Z,27.47
2018-07-07T11:56:40.868Z,26.62
2018-07-07T11:57:40.876Z,26.87
2018-07-07T11:58:40.885Z,26.40
2018-07-07T11:59:40.891Z,26.43
2018-07-07T12:00:40.910Z,26.87
2018-07-07T12:01:40.918Z,26.96
2018-07-07T12:02:40.928Z,27.11
2018-07-07T12:03:40.961Z,27.96
2018-07-07T12:04:41.071Z,28.96
2018-07-07T12:05:41.001Z,29.86
2018-07-07T12:06:40.973Z,30.12
2018-07-07T12:07:41.001Z,30.96
2018-07-07T12:08:41.023Z,31.23
2018-07-07T12:09:41.024Z,31.18
2018-07-07T12:10:41.020Z,31.67
2018-07-07T12:11:41.136Z,32.00
2018-07-07T12:12:41.103Z,32.66
2018-07-07T12:13:41.139Z,32.59
2018-07-07T12:14:41.069Z,32.49
2018-07-07T12:15:41.199Z,32.51
2018-07-07T12:16:41.117Z,30.75
2018-07-07T12:17:41.126Z,29.79
2018-07-07T12:18:41.211Z,28.14
2018-07-07T12:19:41.165Z,27.86
2018-07-07T12:20:41.176Z,27.58
2018-07-07T12:21:41.198Z,28.46
2018-07-07T12:22:41.211Z,29.87
2018-07-07T12:23:41.210Z,30.81
2018-07-07T12:24:41.275Z,31.24
2018-07-07T12:25:41.244Z,31.53
2018-07-07T12:26:41.281Z,31.75
2018-07-07T12:27:41.270Z,30.33
2018-07-07T12:28:41.288Z,29.44
2018-07-07T12:29:41.306Z,28.54
2018-07-07T12:30:41.323Z,28.03
2018-07-07T12:31:41.340Z,28.06
2018-07-07T12:32:41.357Z,27.91
2018-07-07T12:33:41.365Z,28.13
2018-07-07T12:34:41.388Z,28.47
2018-07-07T12:35:41.396Z,28.77
2018-07-07T12:36:41.451Z,29.08
2018-07-07T12:37:41.430Z,28.69
2018-07-07T12:38:41.440Z,27.89
2018-07-07T12:39:41.456Z,27.19
2018-07-07T12:40:41.533Z,27.16
2018-07-07T12:41:41.483Z,27.74
2018-07-07T12:42:41.513Z,27.28
2018-07-07T12:43:41.558Z,26.65
2018-07-07T12:44:41.543Z,26.20
2018-07-07T12:45:41.532Z,25.87
2018-07-07T12:46:41.545Z,25.99
2018-07-07T12:47:41.559Z,25.94
2018-07-07T12:48:41.564Z,26.37
2018-07-07T12:49:41.587Z,26.61
2018-07-07T12:50:41.594Z,26.64
2018-07-07T12:51:41.602Z,26.65
2018-07-07T12:52:41.613Z,26.76
2018-07-07T12:53:41.619Z,26.64
2018-07-07T12:54:41.628Z,26.67
2018-07-07T12:55:41.634Z,26.50
2018-07-07T12:56:41.644Z,26.27
2018-07-07T12:57:41.653Z,26.17
2018-07-07T12:58:41.663Z,26.47
2018-07-07T12:59:41.672Z,26.35
2018-07-07T13:00:41.685Z,25.99
2018-07-07T13:01:41.693Z,26.22
2018-07-07T13:02:41.696Z,26.35
2018-07-07T13:03:41.701Z,26.09
2018-07-07T13:04:41.706Z,26.05
2018-07-07T13:05:41.719Z,25.80
2018-07-07T13:06:41.727Z,25.97
2018-07-07T13:07:41.736Z,25.39
2018-07-07T13:08:41.754Z,25.34
2018-07-07T13:09:41.746Z,25.39
2018-07-07T13:10:41.836Z,25.61
2018-07-07T13:11:41.764Z,25.82
2018-07-07T13:12:41.768Z,25.94
2018-07-07T13:13:41.837Z,25.89
2018-07-07T13:14:41.779Z,26.35
2018-07-07T13:15:41.790Z,26.40
2018-07-07T13:16:41.796Z,26.80
2018-07-07T13:17:41.807Z,27.21
2018-07-07T13:18:41.805Z,27.42
2018-07-07T13:19:41.815Z,27.62
2018-07-07T13:20:41.852Z,27.74
2018-07-07T13:21:41.843Z,27.82
2018-07-07T13:22:41.834Z,27.86
2018-07-07T13:23:41.856Z,27.98
2018-07-07T13:24:41.849Z,28.19
2018-07-07T13:25:41.852Z,28.31
2018-07-07T13:26:41.898Z,28.38
2018-07-07T13:27:41.866Z,28.33
2018-07-07T13:28:41.864Z,28.32
2018-07-07T13:29:41.877Z,28.14
2018-07-07T13:30:41.890Z,28.09
2018-07-07T13:31:41.895Z,28.11
2018-07-07T13:32:41.905Z,28.19
2018-07-07T13:33:41.903Z,28.47
2018-07-07T13:34:41.912Z,28.29
2018-07-07T13:35:41.923Z,28.16
2018-07-07T13:36:41.946Z,28.25
2018-07-07T13:37:41.924Z,28.33
2018-07-07T13:38:42.002Z,27.73
2018-07-07T13:39:41.941Z,27.09
2018-07-07T13:40:41.950Z,26.72
2018-07-07T13:41:41.960Z,26.72
2018-07-07T13:42:41.964Z,27.09
2018-07-07T13:43:41.969Z,27.35
2018-07-07T13:44:41.987Z,27.53
2018-07-07T13:45:41.986Z,27.66
2018-07-07T13:46:41.992Z,27.82
2018-07-07T13:47:42.003Z,27.86
2018-07-07T13:48:42.004Z,27.98
2018-07-07T13:49:42.008Z,28.23
2018-07-07T13:50:42.019Z,28.29
2018-07-07T13:51:42.025Z,28.40
2018-07-07T13:52:42.026Z,28.04
2018-07-07T13:53:42.052Z,28.19
2018-07-07T13:54:42.039Z,27.71
2018-07-07T13:55:42.065Z,27.35
2018-07-07T13:56:42.062Z,27.57
2018-07-07T13:57:42.060Z,27.89
2018-07-07T13:58:42.067Z,28.07
2018-07-07T13:59:42.077Z,28.03
2018-07-07T14:00:42.079Z,28.14
2018-07-07T14:01:42.088Z,28.26
2018-07-07T14:02:42.093Z,28.32
2018-07-07T14:03:42.107Z,28.36
2018-07-07T14:04:42.103Z,28.22
2018-07-07T14:05:42.110Z,27.99
2018-07-07T14:06:42.119Z,27.82
2018-07-07T14:07:42.127Z,27.77
2018-07-07T14:08:42.138Z,27.67
2018-07-07T14:09:42.143Z,27.67
2018-07-07T14:10:42.145Z,27.66
2018-07-07T14:11:42.151Z,27.53
2018-07-07T14:12:42.168Z,27.39
2018-07-07T14:13:42.165Z,27.46
2018-07-07T14:14:42.177Z,27.54
2018-07-07T14:15:42.179Z,27.47
2018-07-07T14:16:42.316Z,27.51
2018-07-07T14:17:42.201Z,27.35
2018-07-07T14:18:42.200Z,27.47
2018-07-07T14:19:42.206Z,27.50
2018-07-07T14:20:42.227Z,27.80
2018-07-07T14:21:42.241Z,27.92
2018-07-07T14:22:42.225Z,27.86
2018-07-07T14:23:42.236Z,27.61
2018-07-07T14:24:42.241Z,27.85